sensor_id;sensor_type;location;lat;lon;timestamp;P1;durP1;ratioP1;P2;durP2;ratioP2
9256;SDS011;4665;51.368;6.782;2023-04-01T00:01:04;3.00;;;1.40;;
9256;SDS011;4665;51.368;6.782;2023-04-01T00:03:31;3.37;;;1.30;;
9256;SDS011;4665;51.368;6.782;2023-04-01T00:05:58;3.50;;;1.57;;
9256;SDS011;4665;51.368;6.782;2023-04-01T00:08:25;4.67;;;1.27;;
9256;SDS011;4665;51.368;6.782;2023-04-01T00:10:52;3.70;;;1.10;;
9256;SDS011;4665;51.368;6.782;2023-04-01T00:13:17;2.40;;;1.40;;
9256;SDS011;4665;51.368;6.782;2023-04-01T00:15:44;1.93;;;0.90;;
9256;SDS011;4665;51.368;6.782;2023-04-01T00:18:10;0.70;;;0.63;;
9256;SDS011;4665;51.368;6.782;2023-04-01T00:20:36;3.80;;;1.30;;
9256;SDS011;4665;51.368;6.782;2023-04-01T00:23:02;1.90;;;1.07;;
9256;SDS011;4665;51.368;6.782;2023-04-01T00:25:28;1.07;;;1.03;;
9256;SDS011;4665;51.368;6.782;2023-04-01T00:27:53;3.33;;;0.87;;
9256;SDS011;4665;51.368;6.782;2023-04-01T00:30:19;3.97;;;1.00;;
9256;SDS011;4665;51.368;6.782;2023-04-01T00:32:45;1.53;;;0.90;;
9256;SDS011;4665;51.368;6.782;2023-04-01T00:35:10;1.70;;;0.90;;
9256;SDS011;4665;51.368;6.782;2023-04-01T00:37:37;3.83;;;1.07;;
9256;SDS011;4665;51.368;6.782;2023-04-01T00:40:05;3.47;;;1.13;;
9256;SDS011;4665;51.368;6.782;2023-04-01T00:42:32;1.47;;;0.90;;
9256;SDS011;4665;51.368;6.782;2023-04-01T00:44:58;1.87;;;1.10;;
9256;SDS011;4665;51.368;6.782;2023-04-01T00:47:23;1.03;;;0.90;;
9256;SDS011;4665;51.368;6.782;2023-04-01T00:49:51;1.73;;;1.20;;
9256;SDS011;4665;51.368;6.782;2023-04-01T00:52:21;1.53;;;1.10;;
9256;SDS011;4665;51.368;6.782;2023-04-01T00:54:50;0.57;;;0.57;;
9256;SDS011;4665;51.368;6.782;2023-04-01T00:57:23;2.03;;;0.73;;
9256;SDS011;4665;51.368;6.782;2023-04-01T00:59:54;2.97;;;1.10;;
9256;SDS011;4665;51.368;6.782;2023-04-01T01:02:20;1.33;;;0.97;;
9256;SDS011;4665;51.368;6.782;2023-04-01T01:04:46;1.30;;;0.97;;
9256;SDS011;4665;51.368;6.782;2023-04-01T01:12:38;0.70;;;0.70;;
9256;SDS011;4665;51.368;6.782;2023-04-01T01:20:46;1.73;;;0.87;;
9256;SDS011;4665;51.368;6.782;2023-04-01T01:32:03;1.80;;;0.90;;
9256;SDS011;4665;51.368;6.782;2023-04-01T01:37:32;2.90;;;0.63;;
9256;SDS011;4665;51.368;6.782;2023-04-01T01:39:59;1.00;;;0.90;;
9256;SDS011;4665;51.368;6.782;2023-04-01T01:42:30;1.87;;;1.27;;
9256;SDS011;4665;51.368;6.782;2023-04-01T01:44:58;0.57;;;0.57;;
9256;SDS011;4665;51.368;6.782;2023-04-01T01:47:27;0.93;;;0.57;;
9256;SDS011;4665;51.368;6.782;2023-04-01T01:49:55;1.40;;;0.80;;
9256;SDS011;4665;51.368;6.782;2023-04-01T01:52:21;0.67;;;0.50;;
9256;SDS011;4665;51.368;6.782;2023-04-01T01:54:48;0.93;;;0.70;;
9256;SDS011;4665;51.368;6.782;2023-04-01T01:57:15;2.23;;;0.80;;
9256;SDS011;4665;51.368;6.782;2023-04-01T01:59:42;0.97;;;0.50;;
9256;SDS011;4665;51.368;6.782;2023-04-01T02:02:11;1.80;;;0.70;;
9256;SDS011;4665;51.368;6.782;2023-04-01T02:04:38;0.93;;;0.60;;
9256;SDS011;4665;51.368;6.782;2023-04-01T02:07:08;1.43;;;0.97;;
9256;SDS011;4665;51.368;6.782;2023-04-01T02:09:40;0.97;;;0.70;;
9256;SDS011;4665;51.368;6.782;2023-04-01T02:12:06;2.13;;;1.00;;
9256;SDS011;4665;51.368;6.782;2023-04-01T02:14:45;3.50;;;0.83;;
9256;SDS011;4665;51.368;6.782;2023-04-01T02:17:19;1.70;;;1.00;;
9256;SDS011;4665;51.368;6.782;2023-04-01T02:22:19;2.00;;;0.80;;
9256;SDS011;4665;51.368;6.782;2023-04-01T02:24:46;1.53;;;0.80;;
9256;SDS011;4665;51.368;6.782;2023-04-01T02:27:14;2.00;;;0.90;;
9256;SDS011;4665;51.368;6.782;2023-04-01T02:29:40;0.80;;;0.80;;
9256;SDS011;4665;51.368;6.782;2023-04-01T02:32:05;2.67;;;0.87;;
9256;SDS011;4665;51.368;6.782;2023-04-01T02:34:32;1.50;;;0.93;;
9256;SDS011;4665;51.368;6.782;2023-04-01T02:36:58;2.47;;;1.00;;
9256;SDS011;4665;51.368;6.782;2023-04-01T02:39:23;2.53;;;1.00;;
9256;SDS011;4665;51.368;6.782;2023-04-01T02:41:51;2.00;;;0.93;;
9256;SDS011;4665;51.368;6.782;2023-04-01T02:44:17;1.00;;;0.90;;
9256;SDS011;4665;51.368;6.782;2023-04-01T02:46:42;1.60;;;0.60;;
9256;SDS011;4665;51.368;6.782;2023-04-01T02:49:08;1.00;;;0.90;;
9256;SDS011;4665;51.368;6.782;2023-04-01T02:51:33;2.63;;;1.10;;
9256;SDS011;4665;51.368;6.782;2023-04-01T02:53:59;4.00;;;0.83;;
9256;SDS011;4665;51.368;6.782;2023-04-01T02:56:24;1.17;;;0.90;;
9256;SDS011;4665;51.368;6.782;2023-04-01T02:58:51;1.07;;;0.80;;
9256;SDS011;4665;51.368;6.782;2023-04-01T03:01:16;1.30;;;1.20;;
9256;SDS011;4665;51.368;6.782;2023-04-01T03:03:42;1.13;;;1.03;;
9256;SDS011;4665;51.368;6.782;2023-04-01T03:06:08;2.40;;;1.10;;
9256;SDS011;4665;51.368;6.782;2023-04-01T03:08:35;2.50;;;1.30;;
9256;SDS011;4665;51.368;6.782;2023-04-01T03:11:01;1.80;;;1.20;;
9256;SDS011;4665;51.368;6.782;2023-04-01T03:13:26;0.80;;;0.80;;
9256;SDS011;4665;51.368;6.782;2023-04-01T03:15:52;1.23;;;1.10;;
9256;SDS011;4665;51.368;6.782;2023-04-01T03:18:18;0.83;;;0.80;;
9256;SDS011;4665;51.368;6.782;2023-04-01T03:20:43;1.27;;;0.83;;
9256;SDS011;4665;51.368;6.782;2023-04-01T03:23:08;1.17;;;0.70;;
9256;SDS011;4665;51.368;6.782;2023-04-01T03:25:34;1.77;;;1.13;;
9256;SDS011;4665;51.368;6.782;2023-04-01T03:27:59;1.20;;;1.10;;
9256;SDS011;4665;51.368;6.782;2023-04-01T03:30:25;2.40;;;1.20;;
9256;SDS011;4665;51.368;6.782;2023-04-01T03:32:51;1.07;;;1.07;;
9256;SDS011;4665;51.368;6.782;2023-04-01T03:35:17;3.87;;;1.13;;
9256;SDS011;4665;51.368;6.782;2023-04-01T03:37:43;1.00;;;1.00;;
9256;SDS011;4665;51.368;6.782;2023-04-01T03:40:09;1.53;;;1.20;;
9256;SDS011;4665;51.368;6.782;2023-04-01T03:42:35;0.83;;;0.83;;
9256;SDS011;4665;51.368;6.782;2023-04-01T03:45:00;0.90;;;0.90;;
9256;SDS011;4665;51.368;6.782;2023-04-01T03:47:26;1.37;;;1.30;;
9256;SDS011;4665;51.368;6.782;2023-04-01T03:49:52;2.00;;;1.10;;
9256;SDS011;4665;51.368;6.782;2023-04-01T03:52:17;1.53;;;1.03;;
9256;SDS011;4665;51.368;6.782;2023-04-01T03:54:42;1.90;;;1.00;;
9256;SDS011;4665;51.368;6.782;2023-04-01T03:57:08;1.10;;;1.00;;
9256;SDS011;4665;51.368;6.782;2023-04-01T03:59:33;3.03;;;1.30;;
9256;SDS011;4665;51.368;6.782;2023-04-01T04:01:59;1.10;;;1.00;;
9256;SDS011;4665;51.368;6.782;2023-04-01T04:04:25;0.73;;;0.73;;
9256;SDS011;4665;51.368;6.782;2023-04-01T04:06:51;1.57;;;1.00;;
9256;SDS011;4665;51.368;6.782;2023-04-01T04:09:16;1.10;;;1.10;;
9256;SDS011;4665;51.368;6.782;2023-04-01T04:11:41;0.93;;;0.93;;
9256;SDS011;4665;51.368;6.782;2023-04-01T04:14:07;1.00;;;1.00;;
9256;SDS011;4665;51.368;6.782;2023-04-01T04:16:34;1.17;;;0.90;;
9256;SDS011;4665;51.368;6.782;2023-04-01T04:19:01;1.37;;;1.10;;
9256;SDS011;4665;51.368;6.782;2023-04-01T04:21:27;0.83;;;0.80;;
9256;SDS011;4665;51.368;6.782;2023-04-01T04:23:53;1.70;;;0.90;;
9256;SDS011;4665;51.368;6.782;2023-04-01T04:26:18;1.50;;;1.00;;
9256;SDS011;4665;51.368;6.782;2023-04-01T04:28:44;1.50;;;1.37;;
9256;SDS011;4665;51.368;6.782;2023-04-01T04:31:09;1.57;;;1.10;;
9256;SDS011;4665;51.368;6.782;2023-04-01T04:33:34;1.57;;;1.20;;
9256;SDS011;4665;51.368;6.782;2023-04-01T04:36:00;0.93;;;0.90;;
9256;SDS011;4665;51.368;6.782;2023-04-01T04:38:27;1.20;;;1.10;;
9256;SDS011;4665;51.368;6.782;2023-04-01T04:40:52;1.20;;;1.10;;
9256;SDS011;4665;51.368;6.782;2023-04-01T04:43:18;0.97;;;0.97;;
9256;SDS011;4665;51.368;6.782;2023-04-01T04:45:44;1.00;;;1.00;;
9256;SDS011;4665;51.368;6.782;2023-04-01T04:48:10;1.00;;;1.00;;
9256;SDS011;4665;51.368;6.782;2023-04-01T04:50:41;1.20;;;1.20;;
9256;SDS011;4665;51.368;6.782;2023-04-01T04:53:09;1.17;;;1.17;;
9256;SDS011;4665;51.368;6.782;2023-04-01T04:55:35;1.50;;;1.40;;
9256;SDS011;4665;51.368;6.782;2023-04-01T04:58:00;2.33;;;1.27;;
9256;SDS011;4665;51.368;6.782;2023-04-01T05:00:26;1.87;;;1.30;;
9256;SDS011;4665;51.368;6.782;2023-04-01T05:02:51;1.57;;;1.23;;
9256;SDS011;4665;51.368;6.782;2023-04-01T05:05:17;1.37;;;1.30;;
9256;SDS011;4665;51.368;6.782;2023-04-01T05:07:42;1.50;;;1.50;;
9256;SDS011;4665;51.368;6.782;2023-04-01T05:10:08;1.10;;;1.10;;
9256;SDS011;4665;51.368;6.782;2023-04-01T05:12:33;1.40;;;1.40;;
9256;SDS011;4665;51.368;6.782;2023-04-01T05:15:05;1.30;;;1.30;;
9256;SDS011;4665;51.368;6.782;2023-04-01T05:17:31;1.80;;;1.70;;
9256;SDS011;4665;51.368;6.782;2023-04-01T05:19:57;1.67;;;1.57;;
9256;SDS011;4665;51.368;6.782;2023-04-01T05:22:23;1.33;;;1.33;;
9256;SDS011;4665;51.368;6.782;2023-04-01T05:24:48;1.60;;;1.50;;
9256;SDS011;4665;51.368;6.782;2023-04-01T05:27:14;2.83;;;1.93;;
9256;SDS011;4665;51.368;6.782;2023-04-01T05:29:39;1.60;;;1.50;;
9256;SDS011;4665;51.368;6.782;2023-04-01T05:32:05;1.70;;;1.60;;
9256;SDS011;4665;51.368;6.782;2023-04-01T05:34:30;3.37;;;2.10;;
9256;SDS011;4665;51.368;6.782;2023-04-01T05:36:56;1.83;;;1.73;;
9256;SDS011;4665;51.368;6.782;2023-04-01T05:39:21;2.20;;;2.10;;
9256;SDS011;4665;51.368;6.782;2023-04-01T05:41:46;2.10;;;2.00;;
9256;SDS011;4665;51.368;6.782;2023-04-01T05:44:12;2.10;;;2.00;;
9256;SDS011;4665;51.368;6.782;2023-04-01T05:46:37;2.60;;;2.40;;
9256;SDS011;4665;51.368;6.782;2023-04-01T05:49:03;2.97;;;2.27;;
9256;SDS011;4665;51.368;6.782;2023-04-01T05:51:28;2.73;;;2.53;;
9256;SDS011;4665;51.368;6.782;2023-04-01T05:53:53;2.33;;;2.20;;
9256;SDS011;4665;51.368;6.782;2023-04-01T05:56:19;2.70;;;2.50;;
9256;SDS011;4665;51.368;6.782;2023-04-01T05:58:46;2.63;;;2.43;;
9256;SDS011;4665;51.368;6.782;2023-04-01T06:01:15;2.43;;;2.33;;
9256;SDS011;4665;51.368;6.782;2023-04-01T06:03:40;2.80;;;2.43;;
9256;SDS011;4665;51.368;6.782;2023-04-01T06:06:10;2.70;;;2.50;;
9256;SDS011;4665;51.368;6.782;2023-04-01T06:08:40;2.50;;;2.40;;
9256;SDS011;4665;51.368;6.782;2023-04-01T06:11:12;2.53;;;2.43;;
9256;SDS011;4665;51.368;6.782;2023-04-01T06:17:05;2.93;;;2.73;;
9256;SDS011;4665;51.368;6.782;2023-04-01T06:27:04;2.83;;;2.63;;
9256;SDS011;4665;51.368;6.782;2023-04-01T06:35:24;3.30;;;3.10;;
9256;SDS011;4665;51.368;6.782;2023-04-01T06:46:17;3.10;;;2.90;;
9256;SDS011;4665;51.368;6.782;2023-04-01T06:54:02;3.70;;;3.33;;
9256;SDS011;4665;51.368;6.782;2023-04-01T06:56:37;4.73;;;3.27;;
9256;SDS011;4665;51.368;6.782;2023-04-01T06:59:09;3.70;;;3.27;;
9256;SDS011;4665;51.368;6.782;2023-04-01T07:01:50;3.70;;;3.40;;
9256;SDS011;4665;51.368;6.782;2023-04-01T07:04:28;4.37;;;3.20;;
9256;SDS011;4665;51.368;6.782;2023-04-01T07:07:05;4.00;;;3.37;;
9256;SDS011;4665;51.368;6.782;2023-04-01T07:09:41;3.50;;;3.27;;
9256;SDS011;4665;51.368;6.782;2023-04-01T07:12:15;3.77;;;3.57;;
9256;SDS011;4665;51.368;6.782;2023-04-01T07:14:53;4.13;;;3.73;;
9256;SDS011;4665;51.368;6.782;2023-04-01T07:17:22;4.70;;;4.30;;
9256;SDS011;4665;51.368;6.782;2023-04-01T07:25:11;3.93;;;3.63;;
9256;SDS011;4665;51.368;6.782;2023-04-01T07:27:40;4.60;;;4.30;;
9256;SDS011;4665;51.368;6.782;2023-04-01T07:30:17;4.70;;;4.40;;
9256;SDS011;4665;51.368;6.782;2023-04-01T07:33:08;4.97;;;4.57;;
9256;SDS011;4665;51.368;6.782;2023-04-01T07:38:42;5.40;;;5.00;;
9256;SDS011;4665;51.368;6.782;2023-04-01T07:44:23;5.00;;;4.60;;
9256;SDS011;4665;51.368;6.782;2023-04-01T07:50:16;5.13;;;4.73;;
9256;SDS011;4665;51.368;6.782;2023-04-01T07:56:05;4.87;;;4.47;;
9256;SDS011;4665;51.368;6.782;2023-04-01T08:03:58;5.40;;;4.93;;
9256;SDS011;4665;51.368;6.782;2023-04-01T08:06:28;5.30;;;4.90;;
9256;SDS011;4665;51.368;6.782;2023-04-01T08:09:09;5.70;;;5.20;;
9256;SDS011;4665;51.368;6.782;2023-04-01T08:12:02;5.70;;;5.30;;
9256;SDS011;4665;51.368;6.782;2023-04-01T08:22:35;6.10;;;5.60;;
9256;SDS011;4665;51.368;6.782;2023-04-01T08:25:06;5.67;;;5.27;;
9256;SDS011;4665;51.368;6.782;2023-04-01T08:27:48;5.70;;;5.10;;
9256;SDS011;4665;51.368;6.782;2023-04-01T08:30:21;4.97;;;4.67;;
9256;SDS011;4665;51.368;6.782;2023-04-01T08:32:57;5.30;;;4.90;;
9256;SDS011;4665;51.368;6.782;2023-04-01T08:38:09;5.83;;;5.33;;
9256;SDS011;4665;51.368;6.782;2023-04-01T08:57:49;6.50;;;5.90;;
9256;SDS011;4665;51.368;6.782;2023-04-01T09:20:09;8.30;;;7.47;;
9256;SDS011;4665;51.368;6.782;2023-04-01T09:28:18;9.83;;;8.80;;
9256;SDS011;4665;51.368;6.782;2023-04-01T09:53:19;9.73;;;8.77;;
9256;SDS011;4665;51.368;6.782;2023-04-01T09:58:56;11.03;;;9.07;;
9256;SDS011;4665;51.368;6.782;2023-04-01T10:35:28;10.30;;;9.23;;
9256;SDS011;4665;51.368;6.782;2023-04-01T10:38:11;11.47;;;9.37;;
9256;SDS011;4665;51.368;6.782;2023-04-01T10:41:10;10.93;;;8.93;;
9256;SDS011;4665;51.368;6.782;2023-04-01T10:55:35;17.80;;;10.83;;
9256;SDS011;4665;51.368;6.782;2023-04-01T11:03:32;12.03;;;10.20;;
9256;SDS011;4665;51.368;6.782;2023-04-01T11:06:30;12.67;;;10.83;;
9256;SDS011;4665;51.368;6.782;2023-04-01T11:26:12;11.43;;;10.33;;
9256;SDS011;4665;51.368;6.782;2023-04-01T11:37:14;14.73;;;10.53;;
9256;SDS011;4665;51.368;6.782;2023-04-01T12:10:19;6.60;;;6.00;;
9256;SDS011;4665;51.368;6.782;2023-04-01T12:13:07;7.73;;;6.93;;
9256;SDS011;4665;51.368;6.782;2023-04-01T12:21:13;7.93;;;7.13;;
9256;SDS011;4665;51.368;6.782;2023-04-01T12:24:01;8.90;;;8.00;;
9256;SDS011;4665;51.368;6.782;2023-04-01T12:35:21;9.07;;;7.90;;
9256;SDS011;4665;51.368;6.782;2023-04-01T12:44:10;10.30;;;8.80;;
9256;SDS011;4665;51.368;6.782;2023-04-01T12:57:36;9.30;;;8.40;;
9256;SDS011;4665;51.368;6.782;2023-04-01T13:03:41;9.27;;;8.37;;
9256;SDS011;4665;51.368;6.782;2023-04-01T13:06:40;9.27;;;7.73;;
9256;SDS011;4665;51.368;6.782;2023-04-01T13:20:43;8.50;;;7.40;;
9256;SDS011;4665;51.368;6.782;2023-04-01T13:28:32;9.63;;;7.80;;
9256;SDS011;4665;51.368;6.782;2023-04-01T13:50:05;7.57;;;6.87;;
9256;SDS011;4665;51.368;6.782;2023-04-01T14:01:05;7.73;;;6.90;;
9256;SDS011;4665;51.368;6.782;2023-04-01T14:09:15;7.73;;;6.63;;
9256;SDS011;4665;51.368;6.782;2023-04-01T14:11:55;7.10;;;6.50;;
9256;SDS011;4665;51.368;6.782;2023-04-01T14:28:25;6.07;;;5.47;;
9256;SDS011;4665;51.368;6.782;2023-04-01T14:47:46;6.33;;;5.83;;
9256;SDS011;4665;51.368;6.782;2023-04-01T14:50:17;6.30;;;5.73;;
9256;SDS011;4665;51.368;6.782;2023-04-01T14:53:29;5.93;;;5.43;;
9256;SDS011;4665;51.368;6.782;2023-04-01T14:58:21;6.53;;;5.33;;
9256;SDS011;4665;51.368;6.782;2023-04-01T15:01:25;6.03;;;5.53;;
9256;SDS011;4665;51.368;6.782;2023-04-01T15:09:40;6.10;;;5.60;;
9256;SDS011;4665;51.368;6.782;2023-04-01T15:15:27;5.20;;;4.80;;
9256;SDS011;4665;51.368;6.782;2023-04-01T15:18:08;4.93;;;4.53;;
9256;SDS011;4665;51.368;6.782;2023-04-01T15:23:20;5.20;;;4.70;;
9256;SDS011;4665;51.368;6.782;2023-04-01T15:37:00;5.73;;;5.23;;
9256;SDS011;4665;51.368;6.782;2023-04-01T15:50:51;4.40;;;4.10;;
9256;SDS011;4665;51.368;6.782;2023-04-01T15:53:29;4.73;;;4.30;;
9256;SDS011;4665;51.368;6.782;2023-04-01T15:56:09;6.87;;;4.57;;
9256;SDS011;4665;51.368;6.782;2023-04-01T16:01:44;4.13;;;3.83;;
9256;SDS011;4665;51.368;6.782;2023-04-01T16:04:37;3.97;;;3.77;;
9256;SDS011;4665;51.368;6.782;2023-04-01T16:10:25;4.73;;;4.33;;
9256;SDS011;4665;51.368;6.782;2023-04-01T16:16:15;4.20;;;3.90;;
9256;SDS011;4665;51.368;6.782;2023-04-01T16:19:03;6.00;;;5.13;;
9256;SDS011;4665;51.368;6.782;2023-04-01T16:21:52;5.50;;;4.50;;
9256;SDS011;4665;51.368;6.782;2023-04-01T16:24:33;4.90;;;4.50;;
9256;SDS011;4665;51.368;6.782;2023-04-01T16:27:11;5.33;;;4.83;;
9256;SDS011;4665;51.368;6.782;2023-04-01T16:32:21;6.10;;;5.53;;
9256;SDS011;4665;51.368;6.782;2023-04-01T16:35:16;9.90;;;8.87;;
9256;SDS011;4665;51.368;6.782;2023-04-01T16:38:09;6.70;;;6.10;;
9256;SDS011;4665;51.368;6.782;2023-04-01T16:49:01;12.70;;;10.50;;
9256;SDS011;4665;51.368;6.782;2023-04-01T16:51:41;9.87;;;8.30;;
9256;SDS011;4665;51.368;6.782;2023-04-01T16:54:29;6.50;;;5.90;;
9256;SDS011;4665;51.368;6.782;2023-04-01T17:02:22;8.20;;;6.73;;
9256;SDS011;4665;51.368;6.782;2023-04-01T17:15:45;8.77;;;7.77;;
9256;SDS011;4665;51.368;6.782;2023-04-01T17:18:23;9.90;;;8.57;;
9256;SDS011;4665;51.368;6.782;2023-04-01T17:21:07;7.93;;;7.20;;
9256;SDS011;4665;51.368;6.782;2023-04-01T17:23:45;6.57;;;5.97;;
9256;SDS011;4665;51.368;6.782;2023-04-01T17:26:32;7.13;;;6.50;;
9256;SDS011;4665;51.368;6.782;2023-04-01T17:32:06;7.20;;;6.50;;
9256;SDS011;4665;51.368;6.782;2023-04-01T17:34:59;8.03;;;7.23;;
9256;SDS011;4665;51.368;6.782;2023-04-01T17:40:48;7.50;;;6.70;;
9256;SDS011;4665;51.368;6.782;2023-04-01T17:45:48;6.47;;;5.87;;
9256;SDS011;4665;51.368;6.782;2023-04-01T17:56:27;7.20;;;6.60;;
9256;SDS011;4665;51.368;6.782;2023-04-01T17:59:18;7.33;;;6.70;;
9256;SDS011;4665;51.368;6.782;2023-04-01T18:02:00;7.50;;;6.90;;
9256;SDS011;4665;51.368;6.782;2023-04-01T18:04:39;7.87;;;6.90;;
9256;SDS011;4665;51.368;6.782;2023-04-01T18:29:40;8.30;;;7.60;;
9256;SDS011;4665;51.368;6.782;2023-04-01T18:32:17;7.63;;;7.03;;
9256;SDS011;4665;51.368;6.782;2023-04-01T18:37:45;8.40;;;7.63;;
9256;SDS011;4665;51.368;6.782;2023-04-01T18:40:20;7.90;;;7.20;;
9256;SDS011;4665;51.368;6.782;2023-04-01T18:45:36;8.47;;;7.57;;
9256;SDS011;4665;51.368;6.782;2023-04-01T18:48:33;8.63;;;7.77;;
9256;SDS011;4665;51.368;6.782;2023-04-01T18:50:58;9.57;;;8.67;;
9256;SDS011;4665;51.368;6.782;2023-04-01T18:59:01;9.60;;;8.60;;
9256;SDS011;4665;51.368;6.782;2023-04-01T19:02:15;10.63;;;9.60;;
9256;SDS011;4665;51.368;6.782;2023-04-01T19:04:39;11.07;;;10.00;;
9256;SDS011;4665;51.368;6.782;2023-04-01T19:09:53;10.37;;;9.47;;
9256;SDS011;4665;51.368;6.782;2023-04-01T19:12:30;10.97;;;9.87;;
9256;SDS011;4665;51.368;6.782;2023-04-01T19:15:12;10.07;;;9.17;;
9256;SDS011;4665;51.368;6.782;2023-04-01T19:20:30;11.37;;;10.27;;
9256;SDS011;4665;51.368;6.782;2023-04-01T19:25:52;10.43;;;9.33;;
9256;SDS011;4665;51.368;6.782;2023-04-01T19:31:43;9.77;;;8.87;;
9256;SDS011;4665;51.368;6.782;2023-04-01T19:37:08;11.17;;;10.07;;
9256;SDS011;4665;51.368;6.782;2023-04-01T19:39:48;8.93;;;8.03;;
9256;SDS011;4665;51.368;6.782;2023-04-01T19:50:34;9.90;;;9.00;;
9256;SDS011;4665;51.368;6.782;2023-04-01T19:53:14;9.73;;;8.60;;
9256;SDS011;4665;51.368;6.782;2023-04-01T19:56:14;10.40;;;8.90;;
9256;SDS011;4665;51.368;6.782;2023-04-01T19:58:48;9.20;;;8.30;;
9256;SDS011;4665;51.368;6.782;2023-04-01T20:01:28;9.27;;;8.47;;
9256;SDS011;4665;51.368;6.782;2023-04-01T20:04:02;7.43;;;6.73;;
9256;SDS011;4665;51.368;6.782;2023-04-01T20:09:33;6.70;;;6.10;;
9256;SDS011;4665;51.368;6.782;2023-04-01T20:12:24;6.43;;;5.93;;
9256;SDS011;4665;51.368;6.782;2023-04-01T20:15:02;5.87;;;5.47;;
9256;SDS011;4665;51.368;6.782;2023-04-01T20:27:51;6.93;;;6.33;;
9256;SDS011;4665;51.368;6.782;2023-04-01T20:38:58;9.50;;;8.60;;
9256;SDS011;4665;51.368;6.782;2023-04-01T20:41:45;8.90;;;8.10;;
9256;SDS011;4665;51.368;6.782;2023-04-01T20:47:27;8.93;;;8.23;;
9256;SDS011;4665;51.368;6.782;2023-04-01T20:53:16;8.27;;;7.40;;
9256;SDS011;4665;51.368;6.782;2023-04-01T21:01:18;6.00;;;5.60;;
9256;SDS011;4665;51.368;6.782;2023-04-01T21:03:55;6.17;;;5.70;;
9256;SDS011;4665;51.368;6.782;2023-04-01T21:12:36;6.70;;;6.20;;
9256;SDS011;4665;51.368;6.782;2023-04-01T21:15:39;6.93;;;6.43;;
9256;SDS011;4665;51.368;6.782;2023-04-01T21:20:57;8.13;;;7.53;;
9256;SDS011;4665;51.368;6.782;2023-04-01T21:32:42;5.80;;;5.40;;
9256;SDS011;4665;51.368;6.782;2023-04-01T21:35:23;5.27;;;4.90;;
9256;SDS011;4665;51.368;6.782;2023-04-01T21:38:14;5.00;;;4.70;;
9256;SDS011;4665;51.368;6.782;2023-04-01T21:46:54;4.00;;;3.80;;
9256;SDS011;4665;51.368;6.782;2023-04-01T21:50:00;4.17;;;3.87;;
9256;SDS011;4665;51.368;6.782;2023-04-01T22:07:09;4.57;;;3.40;;
9256;SDS011;4665;51.368;6.782;2023-04-01T22:09:35;3.90;;;3.60;;
9256;SDS011;4665;51.368;6.782;2023-04-01T22:15:17;4.10;;;3.80;;
9256;SDS011;4665;51.368;6.782;2023-04-01T22:17:50;3.73;;;3.53;;
9256;SDS011;4665;51.368;6.782;2023-04-01T22:26:09;4.30;;;4.00;;
9256;SDS011;4665;51.368;6.782;2023-04-01T22:31:15;4.60;;;4.30;;
9256;SDS011;4665;51.368;6.782;2023-04-01T22:37:04;4.97;;;4.33;;
9256;SDS011;4665;51.368;6.782;2023-04-01T22:51:03;5.10;;;4.70;;
9256;SDS011;4665;51.368;6.782;2023-04-01T22:53:54;4.80;;;4.50;;
9256;SDS011;4665;51.368;6.782;2023-04-01T22:56:47;5.13;;;4.73;;
9256;SDS011;4665;51.368;6.782;2023-04-01T22:59:29;5.63;;;5.13;;
9256;SDS011;4665;51.368;6.782;2023-04-01T23:02:14;5.97;;;5.47;;
9256;SDS011;4665;51.368;6.782;2023-04-01T23:04:43;5.43;;;5.03;;
9256;SDS011;4665;51.368;6.782;2023-04-01T23:10:33;5.07;;;4.67;;
9256;SDS011;4665;51.368;6.782;2023-04-01T23:13:10;5.27;;;4.87;;
9256;SDS011;4665;51.368;6.782;2023-04-01T23:15:40;4.57;;;4.27;;
9256;SDS011;4665;51.368;6.782;2023-04-01T23:20:39;5.00;;;4.60;;
9256;SDS011;4665;51.368;6.782;2023-04-01T23:26:23;5.33;;;4.93;;
9256;SDS011;4665;51.368;6.782;2023-04-01T23:28:53;4.87;;;4.40;;
9256;SDS011;4665;51.368;6.782;2023-04-01T23:34:02;5.50;;;5.13;;
9256;SDS011;4665;51.368;6.782;2023-04-01T23:36:38;5.77;;;5.37;;
9256;SDS011;4665;51.368;6.782;2023-04-01T23:39:11;6.30;;;5.80;;
9256;SDS011;4665;51.368;6.782;2023-04-01T23:41:44;5.80;;;5.40;;
9256;SDS011;4665;51.368;6.782;2023-04-01T23:44:11;6.00;;;5.50;;
9256;SDS011;4665;51.368;6.782;2023-04-01T23:46:39;6.20;;;5.80;;
9256;SDS011;4665;51.368;6.782;2023-04-01T23:49:06;5.93;;;5.43;;
9256;SDS011;4665;51.368;6.782;2023-04-01T23:51:46;6.20;;;5.60;;
9256;SDS011;4665;51.368;6.782;2023-04-01T23:54:29;5.77;;;5.33;;
9256;SDS011;4665;51.368;6.782;2023-04-01T23:56:57;5.47;;;5.07;;
9256;SDS011;4665;51.368;6.782;2023-04-01T23:59:27;5.93;;;5.40;;
